Tiempo atmosférico en la estación meteorológica de Cabo Vilan, A Coruña (50 m.)



Fecha
DESCASC
Temp. máxima en grados centígrados (hora)
DESCASC
Temp. mínima en grados centígrados (hora)
DESCASC
Temp. media en grados centígrados
DESCASC
Racha de viento máxima en m/sg (hora)
DESCASC
Velocidad máxima media en intervalos de 10 minutos(hora)
DESCASC
Precipitaciones diarias en mm
DESCASC
Precipitaciones de 00:00 a 06:00 en mm
DESCASC
Precipitaciones de 06:00 a 12:00 en mm
DESCASC
Precipitaciones de 12:00 a 18:00 en mm
DESCASC
Precipitaciones de 18:00 a 24:00 en mm
DESCASC
13-10-2019 17.8 (02:00) 12.8 (22:30) 15.3 24.17 (03:20) 16.39 (03:30) 31.6 18.6 2.6 4.5 5.9
12-10-2019 20.9 (15:50) 15.9 (04:10) 18.4 21.39 (23:50) 13.06 (23:40) 0 0 0 0 0
11-10-2019 20.5 (14:50) 14.3 (07:30) 17.4 9.72 (16:00) 7.22 (16:00) 0 0 0 0 0
10-10-2019 18.5 (15:00) 13.4 (00:00) 15.9 7.5 (18:00) 6.11 (17:00) 0 0 0 0 0
09-10-2019 19.4 (15:10) 14.1 (00:00) 16.8 7.78 (06:00) 4.72 (06:10) 0 0 0 0 0
08-10-2019 19.6 (01:10) 15.2 (00:00) 17.4 10 (08:40) 7.5 (07:10) 4.3 0.2 4.1 0 0
07-10-2019 19.7 (15:30) 13.6 (00:00) 16.7 7.22 (16:20) 5.56 (16:20) 0 0 0 0 0
06-10-2019 19.1 (15:00) 14.6 (00:00) 16.9 7.5 (00:20) 5.28 (00:20) 0.4 0.4 0 0 0
05-10-2019 20.3 (16:10) 13.7 (00:00) 17 7.78 (23:20) 5.83 (14:30) 0 0 0 0 0
04-10-2019 19.8 (16:00) 14.3 (00:00) 17 3.89 (12:40) 2.5 (12:10) 0.1 0 0.1 0 0
03-10-2019 18.7 (14:20) 13.5 (00:00) 16.1 14.17 (16:20) 10 (16:20) 0 0 0 0 0
02-10-2019 19.9 (15:40) 14.3 (00:00) 17.1 6.11 (03:00) 5 (23:10) 0 0 0 0 0
01-10-2019 20.7 (15:30) 15.7 (00:00) 18.2 14.44 (01:30) 10.83 (00:10) 0.3 0.2 0 0.1 0
30-09-2019 20.9 (15:40) 17.8 (00:00) 19.3 14.72 (22:30) 10.28 (17:20) 3.9 1.2 2.6 0.1 0
29-09-2019 18.9 (16:00) 16.2 (00:00) 17.6 16.39 (12:00) 11.11 (08:50) 7 0 5.2 1.5 0.3
28-09-2019 20.5 (14:30) 14.1 (00:00) 17.3 14.17 (23:50) 9.44 (23:40) 0 0 0 0 0
27-09-2019 20.2 (16:40) 15.6 (00:00) 17.9 12.78 (02:10) 10 (02:10) 2 1.9 0.1 0 0
26-09-2019 21.2 (16:50) 16.3 (00:00) 18.8 13.61 (16:00) 10.56 (16:00) 0 0 0 0 0
25-09-2019 20.1 (16:40) 15 (00:00) 17.6 11.39 (14:50) 9.17 (15:30) 0 0 0 0 0
24-09-2019 19.5 (16:00) 15.3 (00:00) 17.4 20.28 (00:20) 15.28 (00:20) 20.8 20.7 0.1 0 0
23-09-2019 17.6 (23:10) 15.6 (00:00) 16.6 21.39 (12:20) 15.28 (18:00) 17.4 0 0.8 11.2 5.4
22-09-2019 20.3 (16:00) 14.8 (00:00) 17.5 17.5 (03:50) 13.06 (04:00) 0 0 0 0 0
21-09-2019 19.6 (16:20) 14.9 (00:00) 17.3 18.89 (07:40) 13.89 (22:50) 8.1 0 4.6 1.5 2
20-09-2019 20.3 (16:50) 14.9 (00:00) 17.6 15.56 (14:30) 8.33 (19:10) 0 0 0 0 0
19-09-2019 17.2 (15:30) 13 (00:00) 15.1 5.83 (20:50) 4.44 (21:00) 0.1 0 0.1 0 0
18-09-2019 19.8 (15:10) 14.6 (00:00) 17.2 5 (06:20) 3.61 (06:20) 0 0 0 0 0
17-09-2019 21.5 (11:00) 15.7 (00:00) 18.6 7.22 (16:00) 5 (15:20) 0 0 0 0 0
16-09-2019 20 (14:10) 15.1 (00:00) 17.6 16.39 (17:00) 13.33 (17:10) 0 0 0 0 0
15-09-2019 20.4 (12:50) 14.9 (00:00) 17.6 17.22 (21:30) 12.78 (15:40) 0 0 0 0 0

Gráficas

Temp. máximas Temp. mínimas Temp. medias Precipitaciones Rachas de viento máximas Velocidades máximas media en intervalos de 10 minutos

Datos horarios

Fecha y hora oficial Temperatura (ºC) Velocidad del viento (km/h) Dirección del viento Racha (km/h) Dirección de racha Precipitación (mm) Presión (hPa) Tendencia (hPa) Humedad (%)
2019-10-14 23:00:00 14 22 Oeste 40 Oeste 0 -- -- 80
2019-10-14 22:00:00 13.9 27 Oeste 41 Oeste 0 -- -- 77
2019-10-14 21:00:00 13.9 25 Oeste 36 Oeste 0 -- -- 79
2019-10-14 20:00:00 13.3 17 Oeste 31 Oeste 0 -- -- 78
2019-10-14 19:00:00 13.8 21 Oeste 41 Oeste 0 -- -- 76
2019-10-14 18:00:00 14 26 Oeste 51 Noroeste 0.4 -- -- 81
2019-10-14 17:00:00 15.4 36 Oeste 50 Sudoeste 0.1 -- -- 71
2019-10-14 16:00:00 15.2 31 Oeste 42 Oeste 0 -- -- 73
2019-10-14 15:00:00 14.6 13 Oeste 51 Oeste 1.2 -- -- 85
2019-10-14 14:00:00 14.5 23 Oeste 32 Oeste 0 -- -- 78
2019-10-14 13:00:00 13.6 16 Oeste 49 Noroeste 0.2 -- -- 88
2019-10-14 12:00:00 13.9 18 Oeste 30 Noroeste 0.9 -- -- 87
2019-10-14 11:00:00 12.7 22 Noroeste 37 Noroeste 0.1 -- -- 80
2019-10-14 10:00:00 13.7 20 Oeste 30 Oeste 0.1 -- -- 89
2019-10-14 09:00:00 13.8 23 Sudoeste 30 Sudoeste 0 -- -- 95
2019-10-14 08:00:00 13.4 23 Sudoeste 39 Sudoeste 1 -- -- 95
2019-10-14 07:00:00 13.6 37 Sudoeste 55 Sudoeste 2.1 -- -- 95
2019-10-14 06:00:00 14.5 33 Sudoeste 46 Sudoeste 0.2 -- -- 94
2019-10-14 05:00:00 14.3 28 Sur 45 Sur 0 -- -- 94
2019-10-14 04:00:00 14 28 Sur 44 Sur 0 -- -- 95
2019-10-14 03:00:00 13.7 29 Sur 41 Sur 0 -- -- 95
2019-10-14 02:00:00 13.7 26 Sur 35 Sur 0 -- -- 95
2019-10-14 01:00:00 13.5 23 Sur 31 Sur 0 -- -- 95
2019-10-14 00:00:00 13.3 22 Sur 32 Sur 0 -- -- 95
2019-10-13 23:00:00 13.1 22 Sur 32 Sur 0.9 -- -- 95
2019-10-13 22:00:00 13.1 17 Sur 30 Sur 0.7 -- -- 95
2019-10-13 21:00:00 13.6 17 Sur 26 Sur 0.4 -- -- 95
2019-10-13 20:00:00 13.7 14 Sur 19 Sur 1.9 -- -- 95
2019-10-13 19:00:00 13.9 13 Sur 22 Sur 2 -- -- 95
2019-10-13 18:00:00 13.9 16 Sur 22 Sur 1.1 -- -- 95
2019-10-13 17:00:00 14.5 15 Sur 21 Sur 1.1 -- -- 95
2019-10-13 16:00:00 14.8 14 Sur 24 Sur 0.6 -- -- 95
2019-10-13 15:00:00 14.9 14 Sudoeste 22 Sur 1 -- -- 95
2019-10-13 14:00:00 15.5 14 Sur 18 Sudoeste 0.4 -- -- 95
2019-10-13 13:00:00 15.8 7 Sudoeste 13 Sur 0.3 -- -- 95
2019-10-13 12:00:00 14.5 10 Sur 22 Sudeste 0.1 -- -- 95
2019-10-13 11:00:00 13.5 6 Sudeste 17 Noroeste 2.4 -- -- 95
2019-10-13 10:00:00 15 8 Sur 13 Sur 0 -- -- 95
2019-10-13 09:00:00 14.6 7 Sudoeste 13 Sudoeste 0 -- -- 95
2019-10-13 08:00:00 14.4 7 Sudoeste 15 Sudoeste 0 -- -- 95
2019-10-13 07:00:00 14.2 8 Oeste 20 Noroeste 0.1 -- -- 95
2019-10-13 06:00:00 14 15 Noroeste 21 Noroeste 4.3 -- -- 96
2019-10-13 05:00:00 14.7 11 Noroeste 81 Sudoeste 11.1 -- -- 95
2019-10-13 04:00:00 16.7 57 Sur 87 Sur 2.4 -- -- 95
2019-10-13 03:00:00 17 57 Sur 81 Sur 0.8 -- -- 93
2019-10-13 02:00:00 17.8 52 Sur 74 Sur 0 -- -- 88
2019-10-13 01:00:00 17.4 45 Sur 68 Sur 0 -- -- 87
2019-10-13 00:00:00 17.5 44 Sur 77 Sur 0 -- -- 87
2019-10-12 23:00:00 17.4 46 Sur 68 Sur 0 -- -- 87
2019-10-12 22:00:00 17.5 34 Sur 58 Sur 0 -- -- 85
2019-10-12 21:00:00 17.2 34 Sur 55 Sur 0 -- -- 84
2019-10-12 20:00:00 17.3 36 Sur 58 Sur 0 -- -- 81
2019-10-12 19:00:00 18 37 Sur 55 Sur 0 -- -- 74
2019-10-12 18:00:00 19.1 36 Sur 55 Sur 0 -- -- 74
2019-10-12 17:00:00 18.5 37 Sur 54 Sur 0 -- -- 74
2019-10-12 16:00:00 19.9 37 Sur 57 Sur 0 -- -- 67
2019-10-12 15:00:00 20.3 39 Sur 54 Sur 0 -- -- 67
2019-10-12 14:00:00 18.9 35 Sur 50 Sur 0 -- -- 72
2019-10-12 13:00:00 18.7 34 Sur 50 Sur 0 -- -- 74
2019-10-12 12:00:00 18.4 32 Sur 50 Sudoeste 0 -- -- 74
2019-10-12 11:00:00 17.6 32 Sur 48 Sur 0 -- -- 80
2019-10-12 10:00:00 16.3 28 Sur 49 Sur 0 -- -- 88
2019-10-12 09:00:00 16.5 31 Sur 49 Sur 0 -- -- 87
2019-10-12 08:00:00 16.4 31 Sur 45 Sur 0 -- -- 86
2019-10-12 07:00:00 16.1 31 Sur 43 Sur 0 -- -- 88
2019-10-12 06:00:00 16 27 Sur 43 Sur 0 -- -- 91
2019-10-12 05:00:00 16.1 30 Sur 40 Sur 0 -- -- 89
2019-10-12 04:00:00 16 31 Sur 42 Sur 0 -- -- 87
2019-10-12 03:00:00 -- 26 Sur -- -- -- -- -- --
2019-10-12 02:00:00 16.2 23 Sur 30 Sur 0 -- -- 87
2019-10-12 01:00:00 16.3 25 Sur 32 Sur 0 -- -- 85
2019-10-12 00:00:00 16.5 22 Sur 29 Sur 0 -- -- 83
2019-10-11 23:00:00 16.6 19 Sur 26 Sudoeste 0 -- -- 83
2019-10-11 22:00:00 16.6 19 Sur 27 Sur 0 -- -- 83
2019-10-11 21:00:00 16.6 17 Sur 23 Sur 0 -- -- 82
2019-10-11 20:00:00 16.9 18 Sur 29 Sur 0 -- -- 80
2019-10-11 19:00:00 17.2 23 Sudoeste 31 Sudoeste 0 -- -- 78
2019-10-11 18:00:00 17.8 23 Sudoeste 33 Sudoeste 0 -- -- 74
2019-10-11 17:00:00 19 25 Sudoeste 32 Sudoeste 0 -- -- 70
2019-10-11 16:00:00 19.5 26 Sudoeste 35 Sudoeste 0 -- -- 69
2019-10-11 15:00:00 20 24 Sudoeste 30 Sudoeste 0 -- -- 68
2019-10-11 14:00:00 20.1 21 Sudoeste 26 Sudoeste 0 -- -- 68
2019-10-11 13:00:00 19.2 13 Sudoeste 18 Sur 0 -- -- 75
2019-10-11 12:00:00 17.5 9 Sur 14 Sur 0 -- -- 88
2019-10-11 11:00:00 15.9 10 Sudeste 15 Sudeste 0 -- -- 95
2019-10-11 10:00:00 14.8 6 Sudeste 14 Sudeste 0 -- -- 95
2019-10-11 09:00:00 14.4 6 Sudeste 10 Sudeste 0 -- -- 95
2019-10-11 08:00:00 14.5 2 Sudeste 9 Sudeste 0 -- -- 95
2019-10-11 07:00:00 14.6 6 Sudeste 9 Sudeste 0 -- -- 95
2019-10-11 06:00:00 15.1 3 Nordeste 8 Este 0 -- -- 95
2019-10-11 05:00:00 14.8 4 Este 9 Este 0 -- -- 95
2019-10-11 04:00:00 14.5 7 Este 12 Nordeste 0 -- -- 95
2019-10-11 03:00:00 14.9 10 Nordeste 18 Nordeste 0 -- -- 95
2019-10-11 02:00:00 14.9 9 Nordeste 19 Este 0 -- -- 95
2019-10-11 01:00:00 14.9 14 Nordeste 21 Nordeste 0 -- -- 95
2019-10-11 00:00:00 15.2 13 Nordeste 21 Nordeste 0 -- -- 95
2019-10-10 23:00:00 15.4 15 Nordeste 26 Nordeste 0 -- -- 95
2019-10-10 22:00:00 15.7 17 Nordeste 26 Nordeste 0 -- -- 95
2019-10-10 21:00:00 15.8 17 Nordeste 25 Nordeste 0 -- -- 94
2019-10-10 20:00:00 16 20 Nordeste 25 Nordeste 0 -- -- 92
2019-10-10 19:00:00 16.8 20 Nordeste 25 Nordeste 0 -- -- 88
2019-10-10 18:00:00 17.4 22 Nordeste 27 Nordeste 0 -- -- 86
2019-10-10 17:00:00 17.7 22 Nordeste 25 Norte 0 -- -- 86
2019-10-10 16:00:00 18.2 15 Norte 19 Norte 0 -- -- 83
2019-10-10 15:00:00 18.2 14 Norte 17 Norte 0 -- -- 83
2019-10-10 14:00:00 17.9 13 Norte 14 Norte 0 -- -- 84
2019-10-10 13:00:00 17.9 8 Nordeste 13 Nordeste 0 -- -- 82
2019-10-10 12:00:00 17.7 5 Nordeste 9 Nordeste 0 -- -- 87
2019-10-10 11:00:00 16.1 4 Norte 7 Este 0 -- -- 91
2019-10-10 10:00:00 16.2 5 Este 10 Este 0 -- -- 92
2019-10-10 09:00:00 13.8 10 Este 12 Este 0 -- -- 92
2019-10-10 08:00:00 14.2 3 Este 12 Este 0 -- -- 92
2019-10-10 07:00:00 13.8 9 Este 13 Este 0 -- -- 92
2019-10-10 06:00:00 13.9 8 Este 12 Este 0 -- -- 92
2019-10-10 05:00:00 13.7 9 Este 14 Este 0 -- -- 92
2019-10-10 04:00:00 13.4 10 Sudeste 13 Sudeste 0 -- -- 92
2019-10-10 03:00:00 13.9 6 Este 10 Este 0 -- -- 90
2019-10-10 02:00:00 14.6 0 Calma 7 Este 0 -- -- 88
2019-10-10 01:00:00 14.8 0 Calma 6 Este 0 -- -- 88
2019-10-10 00:00:00 14.8 2 Nordeste 5 Norte 0 -- -- 87
2019-10-09 23:00:00 15 0 Calma 9 Norte 0 -- -- 87
2019-10-09 22:00:00 15.1 3 Norte 9 Norte 0 -- -- 86
2019-10-09 21:00:00 15.2 5 Norte 9 Norte 0 -- -- 82
2019-10-09 20:00:00 16 8 Norte 15 Noroeste 0 -- -- 77
2019-10-09 19:00:00 17.3 8 Norte 12 Norte 0 -- -- 76
2019-10-09 18:00:00 18.3 8 Norte 14 Norte 0 -- -- 72
2019-10-09 17:00:00 18.6 6 Norte 12 Noroeste 0 -- -- 67
2019-10-09 16:00:00 19 9 Noroeste 12 Oeste 0 -- -- 68
2019-10-09 15:00:00 19.3 6 Oeste 13 Noroeste 0 -- -- 69
2019-10-09 14:00:00 18.7 7 Norte 13 Norte 0 -- -- 69
2019-10-09 13:00:00 18.1 6 Noroeste 11 Noroeste 0 -- -- 73
2019-10-09 12:00:00 17.6 5 Noroeste 8 Noroeste 0 -- -- 77
2019-10-09 11:00:00 16.1 0 Calma 12 Sudeste 0 -- -- 82
2019-10-09 10:00:00 14.8 0 Calma 2 Oeste 0 -- -- 83
2019-10-09 09:00:00 14.4 0 Calma 6 Noroeste 0 -- -- 83
2019-10-09 08:00:00 14.1 0 Calma 8 Nordeste 0 -- -- 83
2019-10-09 07:00:00 14.4 9 Nordeste 27 Noroeste 0 -- -- 83
2019-10-09 06:00:00 14.8 15 Noroeste 28 Noroeste 0 -- -- 87
2019-10-09 05:00:00 14.5 3 Oeste 12 Noroeste 0 -- -- 88
2019-10-09 04:00:00 14.5 5 Oeste 12 Noroeste 0 -- -- 88
2019-10-09 03:00:00 15 10 Noroeste 21 Noroeste 0 -- -- 86
2019-10-09 02:00:00 14.7 8 Noroeste 15 Noroeste 0 -- -- 89
2019-10-09 01:00:00 15.2 5 Oeste 8 Oeste 0 -- -- 87
2019-10-09 00:00:00 15.4 4 Oeste 15 Noroeste 0 -- -- 86
2019-10-08 23:00:00 15.3 9 Noroeste 19 Noroeste 0 -- -- 83
2019-10-08 22:00:00 15.6 14 Noroeste 22 Noroeste 0 -- -- 83
2019-10-08 21:00:00 15.5 12 Noroeste 20 Noroeste 0 -- -- 83
2019-10-08 20:00:00 16 13 Noroeste 19 Norte 0 -- -- 82
2019-10-08 19:00:00 17.3 10 Norte 18 Norte 0 -- -- 81
2019-10-08 18:00:00 18.3 6 Norte 11 Norte 0 -- -- 82
2019-10-08 17:00:00 18.5 9 Norte 12 Norte 0 -- -- 83
2019-10-08 16:00:00 18.6 7 Norte 10 Norte 0 -- -- 85
2019-10-08 15:00:00 18 8 Norte 10 Norte 0 -- -- 88
2019-10-08 14:00:00 17.4 6 Nordeste 23 Noroeste 0 -- -- 95
2019-10-08 13:00:00 16.9 9 Nordeste 14 Nordeste 0 -- -- 95
2019-10-08 12:00:00 16.1 10 Nordeste 21 Nordeste 0 -- -- 95
2019-10-08 11:00:00 15.7 18 Nordeste 29 Norte 0.9 -- -- 95
2019-10-08 10:00:00 16.1 22 Norte 30 Norte 0.3 -- -- 95
2019-10-08 09:00:00 16.5 23 Norte 36 Oeste 1 -- -- 95
2019-10-08 08:00:00 18.2 26 Sudoeste 34 Sudoeste 1.5 -- -- 95
2019-10-08 07:00:00 18.3 25 Sudoeste 32 Sudoeste 0.4 -- -- 95
2019-10-08 06:00:00 18.4 26 Sudoeste 32 Sudoeste 0.1 -- -- 95
2019-10-08 05:00:00 18.3 23 Sudoeste 31 Sudoeste 0.1 -- -- 95
2019-10-08 04:00:00 18.4 26 Sudoeste 33 Sudoeste 0 -- -- 95
2019-10-08 03:00:00 17.8 22 Sudoeste 28 Sudoeste 0 -- -- 95
2019-10-08 02:00:00 19.2 19 Sur 24 Sur 0 -- -- 95
2019-10-08 01:00:00 19.4 17 Sur 23 Sur 0 -- -- 95
2019-10-08 00:00:00 18.9 14 Sur 18 Sur 0 -- -- 95
2019-10-07 23:00:00 19.2 13 Sur 25 Sur 0 -- -- 95
2019-10-07 22:00:00 18.9 18 Sur 23 Sur 0 -- -- 95
2019-10-07 21:00:00 18.4 16 Sur 21 Sudoeste 0 -- -- 95
2019-10-07 20:00:00 18.5 15 Sur 21 Sudoeste 0 -- -- 95
2019-10-07 19:00:00 19.2 10 Sur 22 Sur 0 -- -- 95
2019-10-07 18:00:00 18.4 15 Sur 21 Sudoeste 0 -- -- 92
2019-10-07 17:00:00 18.7 13 Sudoeste 26 Sudoeste 0 -- -- 88
2019-10-07 16:00:00 18.5 19 Sudoeste 24 Sudoeste 0 -- -- 86
2019-10-07 15:00:00 18.7 19 Sudoeste 25 Sudoeste 0 -- -- 85
2019-10-07 14:00:00 18.9 17 Sudoeste 23 Sudoeste 0 -- -- 84
2019-10-07 13:00:00 18.9 15 Sudoeste 21 Sudoeste 0 -- -- 84
2019-10-07 12:00:00 18.9 16 Sur 20 Sudoeste 0 -- -- 82
2019-10-07 11:00:00 18.7 11 Sur 18 Sur 0 -- -- 84
2019-10-07 10:00:00 16.4 16 Sur 23 Sur 0 -- -- 90
2019-10-07 09:00:00 14.7 16 Sudeste 21 Sur 0 -- -- 91
2019-10-07 08:00:00 14.5 15 Sur 19 Sur 0 -- -- 88
2019-10-07 07:00:00 14.7 9 Sur 12 Sur 0 -- -- 83
2019-10-07 06:00:00 15.1 7 Sur 9 Sudoeste 0 -- -- 81
2019-10-07 05:00:00 15.2 6 Sur 8 Sur 0 -- -- 81
2019-10-07 04:00:00 14.3 5 Sur 12 Sudeste 0 -- -- 91
2019-10-07 03:00:00 13.8 7 Sudeste 12 Sudeste 0 -- -- 93
2019-10-07 02:00:00 15.3 0 Calma -- -- 0 -- -- 92
2019-10-07 01:00:00 15 0 Calma 11 Este 0 -- -- 92
2019-10-07 00:00:00 14.9 5 Nordeste 15 Este 0 -- -- 92
2019-10-06 23:00:00 15 13 Este 15 Este 0 -- -- 92
2019-10-06 22:00:00 15.1 10 Este 13 Este 0 -- -- 92
2019-10-06 21:00:00 15.9 8 Nordeste 15 Nordeste 0 -- -- 91
2019-10-06 20:00:00 16.5 11 Nordeste 15 Norte 0 -- -- 91
2019-10-06 19:00:00 16.8 12 Norte 15 Norte 0 -- -- 89
2019-10-06 18:00:00 17.2 13 Norte 20 Norte 0 -- -- 84
2019-10-06 17:00:00 18 16 Nordeste 21 Nordeste 0 -- -- 83
2019-10-06 16:00:00 18.4 15 Norte 19 Norte 0 -- -- 83
2019-10-06 15:00:00 18.8 13 Nordeste 16 Norte 0 -- -- 86
2019-10-06 14:00:00 18.5 11 Norte 14 Norte 0 -- -- 91
2019-10-06 13:00:00 18.3 9 Norte 11 Norte 0 -- -- 94
2019-10-06 12:00:00 17.6 4 Norte 8 Nordeste 0 -- -- 94
2019-10-06 11:00:00 17 5 Nordeste 10 Nordeste 0 -- -- 95
2019-10-06 10:00:00 16.5 7 Este 14 Nordeste 0 -- -- 95
2019-10-06 09:00:00 16 10 Nordeste 14 Nordeste 0 -- -- 95
2019-10-06 08:00:00 15.8 8 Nordeste 12 Nordeste 0 -- -- 94
2019-10-06 07:00:00 16 0 Calma -- -- 0 -- -- 94
2019-10-06 06:00:00 16.4 0 Calma 0 Calma 0 -- -- 94
2019-10-06 05:00:00 16.4 4 Sudeste 10 Sudeste 0 -- -- 94
2019-10-06 04:00:00 16.4 7 Sur 16 Sudeste 0 -- -- 94
2019-10-06 03:00:00 16.3 13 Sudeste 19 Sur 0 -- -- 94
2019-10-06 02:00:00 16.2 15 Sur 24 Sur 0.3 -- -- 92
2019-10-06 01:00:00 16.5 17 Sur 27 Sur 0.1 -- -- 88
2019-10-06 00:00:00 17.4 19 Sur 28 Sur 0 -- -- 77
2019-10-05 23:00:00 16.9 20 Sur 27 Sur 0 -- -- 81
2019-10-05 22:00:00 16.5 18 Sur 28 Sudeste 0 -- -- 80
2019-10-05 21:00:00 17 17 Sur 24 Sur 0 -- -- 74
2019-10-05 20:00:00 17.1 14 Sur 24 Sudoeste 0 -- -- 74
2019-10-05 19:00:00 19 15 Sur 21 Sudoeste 0 -- -- 70
2019-10-05 18:00:00 18.3 15 Sur 25 Sudoeste 0 -- -- 78
2019-10-05 17:00:00 18.3 17 Sudoeste 26 Sudoeste 0 -- -- 74
2019-10-05 16:00:00 19.5 18 Sudoeste 24 Sudoeste 0 -- -- 71
2019-10-05 15:00:00 19 20 Sudoeste 27 Sudoeste 0 -- -- 73
2019-10-05 14:00:00 18.1 19 Sudoeste 23 Sudoeste 0 -- -- 79
2019-10-05 13:00:00 18.8 11 Sudoeste 16 Sur 0 -- -- 71
2019-10-05 12:00:00 18.2 10 Sudeste 14 Sudeste 0 -- -- 76
2019-10-05 11:00:00 16.5 9 Sur 14 Sudeste 0 -- -- 83
2019-10-05 10:00:00 15.4 9 Sudeste 12 Sudeste 0 -- -- 85
2019-10-05 09:00:00 14.3 9 Sur 10 Sur 0 -- -- 85
2019-10-05 08:00:00 14.1 7 Sudeste 10 Sudeste 0 -- -- 82
2019-10-05 07:00:00 13.9 5 Sudeste 9 Sudeste 0 -- -- 80
2019-10-05 06:00:00 14.1 5 Sudeste 8 Sudeste 0 -- -- 78
2019-10-05 05:00:00 14.2 4 Sudeste 7 Sudeste 0 -- -- 77
2019-10-05 04:00:00 14.4 2 Sudeste 6 Sudeste 0 -- -- 77
2019-10-05 03:00:00 14.7 0 Calma 5 Sudeste 0 -- -- 76
2019-10-05 02:00:00 14.8 0 Calma -- -- 0 -- -- 76
2019-10-05 01:00:00 14.8 0 Calma 6 Sudeste 0 -- -- 80
2019-10-05 00:00:00 14.3 4 Este 9 Sudeste 0 -- -- 81
2019-10-04 23:00:00 14.5 8 Sudeste 10 Este 0 -- -- 82
2019-10-04 22:00:00 14.9 8 Sudeste 9 Sudeste 0 -- -- 78
2019-10-04 21:00:00 15 6 Este 9 Nordeste 0 -- -- 81
2019-10-04 20:00:00 16.5 6 Nordeste 9 Nordeste 0 -- -- 81
2019-10-04 19:00:00 18.1 5 Norte 7 Norte 0 -- -- 76
2019-10-04 18:00:00 18.1 4 Norte 9 Norte 0 -- -- 76
2019-10-04 17:00:00 19 6 Norte 10 Norte 0 -- -- 73
2019-10-04 16:00:00 19.4 3 Norte 12 Oeste 0 -- -- 71
2019-10-04 15:00:00 19.2 5 Noroeste 11 Noroeste 0 -- -- 70
2019-10-04 14:00:00 18.8 9 Noroeste 12 Noroeste 0 -- -- 70
2019-10-04 13:00:00 18.4 0 Calma 14 Sudeste 0 -- -- 78
2019-10-04 12:00:00 17.4 8 Sudeste 13 Sudeste 0 -- -- 89
2019-10-04 11:00:00 16.8 4 Este 12 Este 0 -- -- 92
2019-10-04 10:00:00 16.2 6 Este 10 Este 0 -- -- 94
2019-10-04 09:00:00 15.8 6 Este 9 Sudeste 0 -- -- 94
2019-10-04 08:00:00 15.4 0 Calma 7 Noroeste 0.1 -- -- 95
2019-10-04 07:00:00 15.7 5 Norte 11 Oeste 0 -- -- 95
2019-10-04 06:00:00 16.2 4 Oeste 12 Sudoeste 0 -- -- 95
2019-10-04 05:00:00 16.8 5 Sudoeste 7 Sur 0 -- -- 95
2019-10-04 04:00:00 17 0 Calma 8 Sudeste 0 -- -- 95
2019-10-04 03:00:00 16.9 7 Sudeste 9 Sudeste 0 -- -- 95
2019-10-04 02:00:00 17.3 5 Sur 6 Sur 0 -- -- 95
2019-10-04 01:00:00 17.4 4 Sudoeste 9 Oeste 0 -- -- 95
2019-10-04 00:00:00 17.5 2 Sudoeste 8 Sur 0 -- -- 95
2019-10-03 23:00:00 17.2 8 Sudeste 13 Sudeste 0 -- -- 95
2019-10-03 22:00:00 17.4 7 Sur 18 Sur 0 -- -- 95
2019-10-03 21:00:00 17.3 12 Sur 25 Sur 0 -- -- 95
2019-10-03 20:00:00 17.3 19 Sur 33 Sur 0 -- -- 93
2019-10-03 19:00:00 17.7 25 Sur 39 Sur 0 -- -- 92
2019-10-03 18:00:00 17.5 26 Sur 40 Sur 0 -- -- 91
2019-10-03 17:00:00 17 30 Sur 51 Sur 0 -- -- 88
2019-10-03 16:00:00 17.4 33 Sur 46 Sur 0 -- -- 85
2019-10-03 15:00:00 17.5 32 Sur 46 Sur 0 -- -- 81
2019-10-03 14:00:00 18.4 33 Sur 44 Sur 0 -- -- 78
2019-10-03 13:00:00 17.8 32 Sur 43 Sur 0 -- -- 82
2019-10-03 12:00:00 17.3 27 Sur 38 Sur 0 -- -- 83
2019-10-03 11:00:00 16.9 23 Sur 32 Sur 0 -- -- 84
2019-10-03 10:00:00 15.8 23 Sur 34 Sur 0 -- -- 88
2019-10-03 09:00:00 14.9 25 Sur 32 Sudeste 0 -- -- 91
2019-10-03 08:00:00 14.7 21 Sur 27 Sur 0 -- -- 92
2019-10-03 07:00:00 13.6 22 Sur 29 Sur 0 -- -- 92
2019-10-03 06:00:00 13.8 15 Sur 19 Sur 0 -- -- 92
2019-10-03 05:00:00 14.3 13 Sur 16 Sur 0 -- -- 92
2019-10-03 04:00:00 14.1 11 Sur 18 Sudoeste 0 -- -- 92
2019-10-03 03:00:00 14.3 15 Sur 20 Sur 0 -- -- 86
2019-10-03 02:00:00 14 13 Sudeste 19 Sudeste 0 -- -- 91
2019-10-03 01:00:00 0 0 Calma 18 Sudeste 0 -- -- --
2019-10-03 00:00:00 14.4 13 Este 21 Este 0 -- -- 92
2019-10-02 23:00:00 14.6 16 Este 21 Este 0 -- -- 90
2019-10-02 22:00:00 15 8 Este 13 Nordeste 0 -- -- 88
2019-10-02 21:00:00 15.8 5 Nordeste 8 Nordeste 0 -- -- 88
2019-10-02 20:00:00 16.9 0 Calma 8 Noroeste 0 -- -- 86
2019-10-02 19:00:00 17.8 5 Norte 8 Norte 0 -- -- 81
2019-10-02 18:00:00 18.3 7 Norte 10 Norte 0 -- -- 78
2019-10-02 17:00:00 18.6 8 Norte 11 Nordeste 0 -- -- 76
2019-10-02 16:00:00 19.1 8 Norte 11 Norte 0 -- -- 76
2019-10-02 15:00:00 19 8 Norte 10 Norte 0 -- -- 74
2019-10-02 14:00:00 18.9 7 Norte 9 Norte 0 -- -- 74
2019-10-02 13:00:00 18.9 7 Norte 9 Nordeste 0 -- -- 73
2019-10-02 12:00:00 18.4 4 Nordeste 6 Nordeste 0 -- -- 75
2019-10-02 11:00:00 17.9 2 Nordeste 6 Nordeste 0 -- -- 84
2019-10-02 10:00:00 16.6 0 Calma 6 Nordeste 0 -- -- 88
2019-10-02 09:00:00 15.7 0 Calma 0 Calma 0 -- -- 88
2019-10-02 08:00:00 16 3 Noroeste 13 Noroeste 0 -- -- 85
2019-10-02 07:00:00 16.2 5 Oeste 14 Noroeste 0 -- -- 82
2019-10-02 06:00:00 16.1 11 Noroeste 16 Noroeste 0 -- -- 77
2019-10-02 05:00:00 15.8 9 Noroeste 17 Noroeste 0 -- -- 84
2019-10-02 04:00:00 15.8 6 Oeste 15 Oeste 0 -- -- 93
2019-10-02 03:00:00 15.8 13 Oeste 22 Oeste 0 -- -- 94
2019-10-02 02:00:00 15.8 9 Sudoeste 13 Sur 0 -- -- 94
2019-10-02 01:00:00 15.3 8 Sudoeste 14 Sudoeste 0 -- -- 94
2019-10-02 00:00:00 15.7 9 Sudoeste 13 Sudoeste 0 -- -- 94
2019-10-01 23:00:00 16 8 Sudoeste 14 Sudoeste 0 -- -- 94
2019-10-01 22:00:00 16.1 11 Sudoeste 14 Sudoeste 0 -- -- 94
2019-10-01 21:00:00 16.5 10 Sudoeste 15 Sudoeste 0 -- -- 93
2019-10-01 20:00:00 16.8 10 Sudoeste 19 Sudoeste 0 -- -- 92
2019-10-01 19:00:00 17.2 15 Oeste 23 Sudoeste 0 -- -- 91
2019-10-01 18:00:00 17.6 10 Oeste 24 Sudoeste 0.1 -- -- 86
2019-10-01 17:00:00 19.1 15 Sudoeste 24 Sudoeste 0 -- -- 81
2019-10-01 16:00:00 20.3 18 Sudoeste 27 Sudoeste 0 -- -- 79
2019-10-01 15:00:00 20.3 23 Sudoeste 30 Sudoeste 0 -- -- 82
2019-10-01 14:00:00 20.2 25 Sudoeste 31 Sudoeste 0 -- -- 86
2019-10-01 13:00:00 19.2 22 Sudoeste 30 Sudoeste 0 -- -- 91
2019-10-01 12:00:00 18.6 23 Sudoeste 31 Sudoeste 0 -- -- 94
2019-10-01 11:00:00 17.5 22 Sudoeste 27 Sudoeste 0 -- -- 95
2019-10-01 10:00:00 17.1 21 Sudoeste 28 Sudoeste 0 -- -- 95
2019-10-01 09:00:00 16.7 24 Sudoeste 30 Sudoeste 0 -- -- 95
2019-10-01 08:00:00 16.8 24 Sudoeste 32 Sudoeste 0 -- -- 95
2019-10-01 07:00:00 17 23 Sudoeste 30 Sudoeste 0 -- -- 95
2019-10-01 06:00:00 17.4 24 Sudoeste 33 Sudoeste 0 -- -- 95
2019-10-01 05:00:00 17.6 25 Sudoeste 38 Sudoeste 0 -- -- 95
2019-10-01 04:00:00 17.8 27 Sudoeste 39 Sudoeste 0 -- -- 95
2019-10-01 03:00:00 17.8 31 Sudoeste 47 Sudoeste 0 -- -- 95
2019-10-01 02:00:00 18 37 Sudoeste 52 Sudoeste 0 -- -- 95
2019-10-01 01:00:00 18.2 37 Sudoeste 52 Sudoeste 0.2 -- -- 94
2019-10-01 00:00:00 18.7 37 Sudoeste 53 Sudoeste 0 -- -- 90
2019-09-30 23:00:00 18.7 32 Sur 53 Sudoeste 0 -- -- 86
2019-09-30 22:00:00 18.6 30 Sur 43 Sur 0 -- -- 86
2019-09-30 21:00:00 18.5 28 Sur 42 Sur 0 -- -- 86
2019-09-30 20:00:00 18.7 27 Sur 43 Sudoeste 0 -- -- 84
2019-09-30 19:00:00 18.7 25 Sur 43 Sudoeste 0 -- -- 85
2019-09-30 18:00:00 19 32 Sudoeste 48 Sudoeste 0 -- -- 87
2019-09-30 17:00:00 19.3 36 Sudoeste 46 Sudoeste 0 -- -- 88
2019-09-30 16:00:00 19.8 34 Sudoeste 46 Sur 0.1 -- -- 91
2019-09-30 15:00:00 19.5 30 Sudoeste 43 Sudoeste 0 -- -- 95
2019-09-30 14:00:00 19 28 Sur 41 Sur 0 -- -- 95
2019-09-30 13:00:00 18.4 31 Sudoeste 40 Sudoeste 0 -- -- 95
2019-09-30 12:00:00 18.3 29 Sudoeste 39 Sudoeste 0 -- -- 95
2019-09-30 11:00:00 18.6 28 Sudoeste 40 Sudoeste 0.1 -- -- 95
2019-09-30 10:00:00 18.5 26 Sudoeste 35 Sudoeste 0 -- -- 95
2019-09-30 09:00:00 18.3 21 Sur 44 Sudoeste 0 -- -- 95
2019-09-30 08:00:00 18.2 18 Sur 32 Sur 0.6 -- -- 95
2019-09-30 07:00:00 18.5 21 Sur 27 Sur 1.9 -- -- 95
2019-09-30 06:00:00 18.2 20 Sur 25 Sur 1 -- -- 95
2019-09-30 05:00:00 18.3 19 Sur 26 Sur 0.2 -- -- 95
2019-09-30 04:00:00 18.4 17 Sur 26 Sur 0 -- -- 95
2019-09-30 03:00:00 18.5 16 Sur 28 Sur 0 -- -- 95
2019-09-30 02:00:00 18.6 21 Sur 31 Sur 0 -- -- 95
2019-09-30 01:00:00 17.9 25 Sur 32 Sur 0 -- -- 95
2019-09-30 00:00:00 17.9 20 Sur 25 Sur 0 -- -- 95
2019-09-29 23:00:00 17.8 17 Sur 21 Sur 0 -- -- 95
2019-09-29 22:00:00 17.7 14 Sur 22 Sur 0 -- -- 95
2019-09-29 21:00:00 17.9 12 Sur 21 Sudoeste 0 -- -- 95
2019-09-29 20:00:00 17.7 17 Sudoeste 29 Sudoeste 0 -- -- 95
2019-09-29 19:00:00 17.5 23 Sudoeste 30 Sudoeste 0.3 -- -- 95
2019-09-29 18:00:00 18.2 22 Sudoeste 37 Sudoeste 0.2 -- -- 95
2019-09-29 17:00:00 18.1 31 Sudoeste 45 Sudoeste 0 -- -- 95
2019-09-29 16:00:00 18.9 33 Sudoeste 44 Sudoeste 0 -- -- 95
2019-09-29 15:00:00 18.6 33 Sudoeste 49 Sudoeste 0.1 -- -- 95
2019-09-29 14:00:00 18.5 32 Sudoeste 55 Sur 1 -- -- 95
2019-09-29 13:00:00 18.3 35 Sur 57 Sur 0.2 -- -- 95
2019-09-29 12:00:00 18.4 39 Sur 59 Sudoeste 0.4 -- -- 95
2019-09-29 11:00:00 17.6 31 Sur 52 Sur 1.3 -- -- 95
2019-09-29 10:00:00 17.4 36 Sur 50 Sur 2 -- -- 95
2019-09-29 09:00:00 17 39 Sur 50 Sur 1 -- -- 95
2019-09-29 08:00:00 17.2 37 Sur 53 Sur 0.5 -- -- 95
2019-09-29 07:00:00 17.4 40 Sur 52 Sur 0 -- -- 94
2019-09-29 06:00:00 17.3 39 Sur 51 Sur 0 -- -- 93
2019-09-29 05:00:00 17.5 38 Sur 50 Sur 0 -- -- 91
2019-09-29 04:00:00 17.5 37 Sur 49 Sur 0 -- -- 90
2019-09-29 03:00:00 17.5 36 Sur 50 Sur 0 -- -- 88
2019-09-29 02:00:00 17.4 35 Sur 50 Sudoeste 0 -- -- 88
2019-09-29 01:00:00 17 36 Sur 53 Sur 0 -- -- 87
2019-09-29 00:00:00 16.2 28 Sur 51 Sur 0 -- -- 87
2019-09-28 23:00:00 16.1 29 Sur 42 Sur 0 -- -- 87
2019-09-28 22:00:00 16.1 31 Sur 42 Sur 0 -- -- 87
2019-09-28 21:00:00 16.1 26 Sur 39 Sur 0 -- -- 85
2019-09-28 20:00:00 17 25 Sudoeste 39 Sur 0 -- -- 77
2019-09-28 19:00:00 18.3 29 Sudoeste 38 Sudoeste 0 -- -- 72
2019-09-28 18:00:00 19.2 25 Sudoeste 35 Sur 0 -- -- 69
2019-09-28 17:00:00 19.4 30 Sudoeste 38 Sudoeste 0 -- -- 66
2019-09-28 16:00:00 19 27 Sudoeste 33 Sudoeste 0 -- -- 70
2019-09-28 15:00:00 19.5 23 Sudoeste 29 Sudoeste 0 -- -- 67
2019-09-28 14:00:00 19.6 20 Sudoeste 29 Sudoeste 0 -- -- 70
2019-09-28 13:00:00 19 19 Sudoeste 25 Sudoeste 0 -- -- 75
2019-09-28 12:00:00 18.4 13 Sudoeste 18 Sudoeste 0 -- -- 78
2019-09-28 11:00:00 17 11 Sur 15 Sur 0 -- -- 84
2019-09-28 10:00:00 15.2 11 Sur 13 Sur 0 -- -- 86
2019-09-28 09:00:00 14.7 10 Sur 15 Sur 0 -- -- 88
2019-09-28 08:00:00 14.3 12 Sur 16 Sur 0 -- -- 88
2019-09-28 07:00:00 14.3 13 Sur 17 Sudeste 0 -- -- 88
2019-09-28 06:00:00 14.6 13 Sur 16 Sur 0 -- -- 88
2019-09-28 05:00:00 14.5 10 Sur 14 Sur 0 -- -- 88
2019-09-28 04:00:00 14.8 10 Sur 14 Sur 0 -- -- 89
2019-09-28 03:00:00 14.4 9 Sudeste 12 Sudeste 0 -- -- 90
2019-09-28 02:00:00 14.6 8 Sur 11 Sudeste 0 -- -- 88
2019-09-28 01:00:00 15.1 6 Sur 9 Sur 0 -- -- 87
2019-09-28 00:00:00 15.9 7 Sur 10 Sur 0 -- -- 86
2019-09-27 23:00:00 15.8 4 Sur 10 Sur 0 -- -- 87
2019-09-27 22:00:00 15.9 6 Sudoeste 10 Sur 0 -- -- 87
2019-09-27 21:00:00 15.9 8 Sur 12 Sudoeste 0 -- -- 86
2019-09-27 20:00:00 17.1 9 Sudoeste 14 Sudoeste 0 -- -- 79
2019-09-27 19:00:00 18.9 10 Sudoeste 15 Sudoeste 0 -- -- 72
2019-09-27 18:00:00 19.3 10 Sudoeste 14 Sudoeste 0 -- -- 72
2019-09-27 17:00:00 18.8 8 Oeste 24 Oeste 0 -- -- 80
2019-09-27 16:00:00 19.9 15 Sudoeste 22 Sudoeste 0 -- -- 82
2019-09-27 15:00:00 19.4 16 Sudoeste 22 Sudoeste 0 -- -- 87
2019-09-27 14:00:00 18.8 15 Sudoeste 18 Sudoeste 0 -- -- 95
2019-09-27 13:00:00 18.2 13 Sudoeste 19 Sudoeste 0 -- -- 95
2019-09-27 12:00:00 17.5 13 Sudoeste 18 Sudoeste 0 -- -- 95
2019-09-27 11:00:00 16.7 13 Sudoeste 21 Sudoeste 0 -- -- 95
2019-09-27 10:00:00 16.7 16 Sudoeste 29 Sudoeste 0 -- -- 95
2019-09-27 09:00:00 17 22 Sudoeste 29 Sudoeste 0 -- -- 95
2019-09-27 08:00:00 17.1 22 Sudoeste 30 Sudoeste 0.1 -- -- 95
2019-09-27 07:00:00 17.3 20 Sudoeste 31 Sudoeste 0 -- -- 95
2019-09-27 06:00:00 17.2 23 Sudoeste 33 Sudoeste 0 -- -- 95
2019-09-27 05:00:00 17.2 27 Sudoeste 39 Sudoeste 0 -- -- 95
2019-09-27 04:00:00 17.4 30 Sudoeste 43 Sudoeste 0.5 -- -- 95
2019-09-27 03:00:00 17.6 33 Sudoeste 46 Sur 1.3 -- -- 95
2019-09-27 02:00:00 17.7 35 Sudoeste 45 Sudoeste 0.1 -- -- 95
2019-09-27 01:00:00 17.7 31 Sudoeste 44 Sudoeste 0 -- -- 95
2019-09-27 00:00:00 17.8 32 Sudoeste 44 Sur 0 -- -- 94
2019-09-26 23:00:00 18.1 32 Sudoeste 44 Sur 0 -- -- 92
2019-09-26 22:00:00 17.9 30 Sudoeste 47 Sudoeste 0 -- -- 92
2019-09-26 21:00:00 18.1 35 Sudoeste 45 Sur 0 -- -- 91
2019-09-26 20:00:00 17.9 29 Sudoeste 43 Sudoeste 0 -- -- 91
2019-09-26 19:00:00 18.2 33 Sudoeste 47 Sudoeste 0 -- -- 88
2019-09-26 18:00:00 18.3 36 Sudoeste 48 Sudoeste 0 -- -- 86
2019-09-26 17:00:00 20.6 36 Sudoeste 48 Sudoeste 0 -- -- 74
2019-09-26 16:00:00 20.7 38 Sudoeste 49 Sudoeste 0 -- -- 74
2019-09-26 15:00:00 20 35 Sudoeste 44 Sudoeste 0 -- -- 80
2019-09-26 14:00:00 19.9 35 Sudoeste 45 Sur 0 -- -- 82
2019-09-26 13:00:00 19.1 34 Sudoeste 46 Sudoeste 0 -- -- 85
2019-09-26 12:00:00 18.9 33 Sudoeste 43 Sudoeste 0 -- -- 87
2019-09-26 11:00:00 17.6 30 Sudoeste 39 Sudoeste 0 -- -- 92
2019-09-26 10:00:00 17.1 27 Sudoeste 33 Sudoeste 0 -- -- 95
2019-09-26 09:00:00 16.4 27 Sudoeste 35 Sudoeste 0 -- -- 95
2019-09-26 08:00:00 16.7 27 Sudoeste 35 Sudoeste 0 -- -- 95
2019-09-26 07:00:00 16.8 27 Sudoeste 36 Sur 0 -- -- 95
2019-09-26 06:00:00 16.7 26 Sudoeste 76 Sur 0 -- -- 95
2019-09-26 05:00:00 16.7 28 Sudoeste 38 Sudoeste 0 -- -- 95
2019-09-26 04:00:00 17 30 Sudoeste 39 Sudoeste 0 -- -- 95
2019-09-26 03:00:00 16.9 28 Sudoeste 38 Sudoeste 0 -- -- 95
2019-09-26 02:00:00 16.9 29 Sudoeste 39 Sudoeste 0 -- -- 95
2019-09-26 01:00:00 17 30 Sudoeste 39 Sudoeste 0 -- -- 95
2019-09-26 00:00:00 16.8 29 Sudoeste 36 Sudoeste 0 -- -- 95
2019-09-25 23:00:00 16.7 28 Sudoeste 37 Sudoeste 0 -- -- 95
2019-09-25 22:00:00 16.7 27 Sudoeste 38 Sudoeste 0 -- -- 94
2019-09-25 21:00:00 16.7 30 Sudoeste 38 Sudoeste 0 -- -- 93
2019-09-25 20:00:00 17.2 28 Sudoeste 39 Sudoeste 0 -- -- 91
2019-09-25 19:00:00 18.1 27 Sudoeste 39 Sudoeste 0 -- -- 85
2019-09-25 18:00:00 18.9 28 Sudoeste 40 Sudoeste 0 -- -- 80
2019-09-25 17:00:00 19.6 32 Sudoeste 41 Sudoeste 0 -- -- 80
2019-09-25 16:00:00 18.8 31 Sudoeste 41 Sudoeste 0 -- -- 84
2019-09-25 15:00:00 18.1 30 Sudoeste 41 Sudoeste 0 -- -- 83
2019-09-25 14:00:00 19.6 30 Sudoeste 36 Sudoeste 0 -- -- 78
2019-09-25 13:00:00 18.9 27 Sudoeste 35 Sudoeste 0 -- -- 84
2019-09-25 12:00:00 18.1 27 Sudoeste 34 Sudoeste 0 -- -- 88
2019-09-25 11:00:00 16.8 25 Sudoeste 32 Sudoeste 0 -- -- 95
2019-09-25 10:00:00 16.1 24 Sudoeste 28 Sudoeste 0 -- -- 95
2019-09-25 09:00:00 15.4 21 Sudoeste 26 Sudoeste 0 -- -- 95
2019-09-25 08:00:00 15.1 18 Sudoeste 23 Sur 0 -- -- 95
2019-09-25 07:00:00 15.4 19 Sudoeste 24 Sudoeste 0 -- -- 95
2019-09-25 06:00:00 15.3 19 Sudoeste 25 Sudoeste 0 -- -- 95
2019-09-25 05:00:00 15.6 19 Sudoeste 27 Sudoeste 0 -- -- 95
2019-09-25 04:00:00 15.8 19 Sudoeste 23 Sudoeste 0 -- -- 95
2019-09-25 03:00:00 15.5 18 Sudoeste 23 Sudoeste 0 -- -- 95
2019-09-25 02:00:00 15.7 19 Sudoeste 24 Sudoeste 0 -- -- 95
2019-09-25 01:00:00 15.4 18 Sudoeste 24 Sudoeste 0 -- -- 95
2019-09-25 00:00:00 15.4 18 Sudoeste 26 Sudoeste 0 -- -- 94
2019-09-24 23:00:00 15.7 22 Sudoeste 28 Sudoeste 0 -- -- 93
2019-09-24 22:00:00 16 23 Sudoeste 30 Sudoeste 0 -- -- 92
2019-09-24 21:00:00 15.9 24 Sudoeste 33 Sudoeste 0 -- -- 91
2019-09-24 20:00:00 16.7 24 Sudoeste 30 Sudoeste 0 -- -- 86
2019-09-24 19:00:00 16.8 23 Sudoeste 30 Sudoeste 0 -- -- 84
2019-09-24 18:00:00 18.4 23 Sudoeste 32 Sudoeste 0 -- -- 81
2019-09-24 17:00:00 18.9 23 Sudoeste 31 Sudoeste 0 -- -- 84
2019-09-24 16:00:00 19.3 23 Sudoeste 35 Sudoeste 0 -- -- 82
2019-09-24 15:00:00 17.6 29 Sudoeste 36 Sudoeste 0 -- -- 91
2019-09-24 14:00:00 18.2 25 Sudoeste 32 Sudoeste 0 -- -- 95
2019-09-24 13:00:00 17.9 25 Sudoeste 33 Sudoeste 0 -- -- 95
2019-09-24 12:00:00 17.6 26 Sudoeste 38 Sudoeste 0 -- -- 95
2019-09-24 11:00:00 16.8 27 Sudoeste 39 Sudoeste 0.1 -- -- 95
2019-09-24 10:00:00 16.8 27 Sudoeste 32 Sudoeste 0 -- -- 95
2019-09-24 09:00:00 16.5 24 Sudoeste 31 Sudoeste 0 -- -- 95
2019-09-24 08:00:00 16.2 24 Sudoeste 31 Sudoeste 0 -- -- 95
2019-09-24 07:00:00 16.4 26 Sudoeste 36 Sudoeste 0 -- -- 95
2019-09-24 06:00:00 16.4 30 Sudoeste 42 Sudoeste 0 -- -- 95
2019-09-24 05:00:00 17.4 35 Sudoeste 53 Sudoeste 0 -- -- 95
2019-09-24 04:00:00 18 43 Sudoeste 71 Sudoeste 0.7 -- -- 95
2019-09-24 03:00:00 18.2 53 Sudoeste 70 Sudoeste 9.2 -- -- 95
2019-09-24 02:00:00 17.5 46 Sur 73 Sur 6.1 -- -- 95
2019-09-24 01:00:00 17.3 50 Sur 73 Sur 4.7 -- -- 95
2019-09-24 00:00:00 17.4 51 Sur 74 Sur 0.6 -- -- 95
2019-09-23 23:00:00 17.5 50 Sur 72 Sur 1.1 -- -- 95
2019-09-23 22:00:00 17.4 53 Sur 69 Sur 0.5 -- -- 95
2019-09-23 21:00:00 17.3 50 Sur 74 Sur 0.9 -- -- 95
2019-09-23 20:00:00 17.3 54 Sur 76 Sur 1.8 -- -- 95
2019-09-23 19:00:00 17.2 54 Sur 76 Sur 0.5 -- -- 95
2019-09-23 18:00:00 17.1 55 Sur 76 Sur 0.3 -- -- 96
2019-09-23 17:00:00 16.8 50 Sur 75 Sur 2 -- -- 95
2019-09-23 16:00:00 16.6 52 Sur 76 Sur 3.8 -- -- 95
2019-09-23 15:00:00 16.7 51 Sur 76 Sur 2.4 -- -- 95
2019-09-23 14:00:00 16.6 48 Sur 72 Sur 1.8 -- -- 95
2019-09-23 13:00:00 16.9 49 Sur 77 Sur 0.9 -- -- 95
2019-09-23 12:00:00 17 49 Sur 71 Sur 0.8 -- -- 95
2019-09-23 11:00:00 17.4 50 Sur 72 Sur 0 -- -- 90
2019-09-23 10:00:00 17.4 45 Sur 67 Sur 0 -- -- 91
2019-09-23 09:00:00 17 41 Sur 58 Sur 0 -- -- 91
2019-09-23 08:00:00 16.8 38 Sur 55 Sur 0 -- -- 90
2019-09-23 07:00:00 16.8 37 Sur 50 Sudoeste 0 -- -- 91
2019-09-23 06:00:00 16.7 34 Sur 50 Sur 0 -- -- 91
2019-09-23 05:00:00 16.6 31 Sur 45 Sur 0 -- -- 89
2019-09-23 04:00:00 16.5 29 Sur 39 Sur 0 -- -- 88
2019-09-23 03:00:00 16.1 28 Sur 41 Sur 0 -- -- 89
2019-09-23 02:00:00 15.8 26 Sur 39 Sur 0 -- -- 91
2019-09-23 01:00:00 15.8 25 Sur 36 Sur 0 -- -- 92
2019-09-23 00:00:00 15.6 23 Sur 33 Sur 0 -- -- 91
2019-09-22 23:00:00 15.5 19 Sur 35 Sudoeste 0 -- -- 91
2019-09-22 22:00:00 15.8 24 Sudoeste 36 Sudoeste 0 -- -- 91
2019-09-22 21:00:00 16.1 28 Sudoeste 38 Sudoeste 0 -- -- 88
2019-09-22 20:00:00 16.6 29 Sudoeste 37 Sudoeste 0 -- -- 85
2019-09-22 19:00:00 17.6 28 Sudoeste 38 Sudoeste 0 -- -- 78
2019-09-22 18:00:00 19.2 28 Sudoeste 36 Sudoeste 0 -- -- 74
2019-09-22 17:00:00 19.1 28 Sudoeste 37 Sudoeste 0 -- -- 77
2019-09-22 16:00:00 20 27 Sudoeste 39 Sudoeste 0 -- -- 73
2019-09-22 15:00:00 20 27 Sudoeste 37 Sudoeste 0 -- -- 76
2019-09-22 14:00:00 19.9 28 Sudoeste 37 Sudoeste 0 -- -- 77
2019-09-22 13:00:00 19.2 29 Sudoeste 36 Sudoeste 0 -- -- 80
2019-09-22 12:00:00 18.5 28 Sudoeste 38 Sudoeste 0 -- -- 84
2019-09-22 11:00:00 17.5 27 Sudoeste 38 Sudoeste 0 -- -- 88
2019-09-22 10:00:00 16.2 29 Sudoeste 40 Sudoeste 0 -- -- 91
2019-09-22 09:00:00 15.6 27 Sudoeste 36 Sudoeste 0 -- -- 94
2019-09-22 08:00:00 15.4 30 Sudoeste 41 Sudoeste 0 -- -- 94
2019-09-22 07:00:00 15.7 35 Sudoeste 44 Sudoeste 0 -- -- 94
2019-09-22 06:00:00 15.4 36 Sudoeste 49 Sudoeste 0 -- -- 94
2019-09-22 05:00:00 15.1 32 Sudoeste 54 Sudoeste 0 -- -- 94
2019-09-22 04:00:00 15.4 47 Sudoeste 63 Sudoeste 0 -- -- 89
2019-09-22 03:00:00 15.3 37 Sudoeste 49 Sudoeste 0 -- -- 91
2019-09-22 02:00:00 15.1 32 Sudoeste 43 Sudoeste 0 -- -- 94
2019-09-22 01:00:00 15.1 31 Sudoeste 42 Sudoeste 0 -- -- 95
2019-09-22 00:00:00 15.2 32 Sudoeste 52 Sudoeste 0.6 -- -- 95
2019-09-21 23:00:00 16.1 42 Sudoeste 67 Sudoeste 1.4 -- -- 92
2019-09-21 22:00:00 17.3 49 Sudoeste 63 Sur 0 -- -- 88
2019-09-21 21:00:00 16.7 38 Sudoeste 57 Sur 0 -- -- 86
2019-09-21 20:00:00 17.5 33 Sudoeste 49 Sudoeste 0 -- -- 88
2019-09-21 19:00:00 17.9 37 Sudoeste 49 Sudoeste 0 -- -- 84
2019-09-21 18:00:00 19.1 31 Sudoeste 43 Sudoeste 0 -- -- 82
2019-09-21 17:00:00 19.3 31 Sudoeste 44 Sudoeste 0 -- -- 82
2019-09-21 16:00:00 18.4 27 Sudoeste 38 Sudoeste 0.1 -- -- 87
2019-09-21 15:00:00 18.1 19 Sur 25 Sur 0 -- -- 95
2019-09-21 14:00:00 15.9 14 Sudoeste 60 Sur 0.6 -- -- 95
2019-09-21 13:00:00 17 45 Sur 63 Sur 0.8 -- -- 95
2019-09-21 12:00:00 17.1 42 Sur 67 Sur 1.1 -- -- 95
2019-09-21 11:00:00 16.9 31 Sur 63 Sur 1.9 -- -- 95
2019-09-21 10:00:00 17.2 37 Sur 60 Sur 0.8 -- -- 95
2019-09-21 09:00:00 17.3 43 Sur 66 Sur 0.5 -- -- 95
2019-09-21 08:00:00 17.4 46 Sur 68 Sur 0.2 -- -- 93
2019-09-21 07:00:00 17.5 38 Sur 59 Sur 0.1 -- -- 91
2019-09-21 06:00:00 17.9 37 Sur 63 Sur 0 -- -- 85
2019-09-21 05:00:00 18.3 39 Sur 53 Sur 0 -- -- 82
2019-09-21 04:00:00 17.8 40 Sur 56 Sur 0 -- -- 88
2019-09-21 03:00:00 17.6 34 Sur 49 Sur 0 -- -- 86
2019-09-21 02:00:00 17.5 33 Sur 49 Sur 0 -- -- 88
2019-09-21 01:00:00 17.2 29 Sur 42 Sur 0 -- -- 91
2019-09-21 00:00:00 17.1 27 Sur 41 Sur 0 -- -- 91
2019-09-20 23:00:00 16.8 24 Sur 36 Sur 0 -- -- 90
2019-09-20 22:00:00 17 23 Sur 32 Sur 0 -- -- 89
2019-09-20 21:00:00 17.4 20 Sur 30 Sur 0 -- -- 87
2019-09-20 20:00:00 18.5 21 Sur 39 Sur 0 -- -- 81
2019-09-20 19:00:00 19.7 25 Sur 36 Sur 0 -- -- 79
2019-09-20 18:00:00 19.1 25 Sur 41 Sur 0 -- -- 79
2019-09-20 17:00:00 19.9 24 Sur 38 Sur 0 -- -- 77
2019-09-20 16:00:00 19.3 26 Sur 39 Sur 0 -- -- 81
2019-09-20 15:00:00 19.4 22 Sur 56 Sur 0 -- -- 82
2019-09-20 14:00:00 18.8 22 Sur 32 Sur 0 -- -- 86
2019-09-20 13:00:00 17.4 16 Sur 24 Sur 0 -- -- 93
2019-09-20 12:00:00 16.9 19 Sur 32 Sudoeste 0 -- -- 96
2019-09-20 11:00:00 16.6 12 Sur 19 Sur 0 -- -- 96
2019-09-20 10:00:00 16.2 9 Sur 17 Sur 0 -- -- 96
2019-09-20 09:00:00 15.7 10 Sur 19 Sur 0 -- -- 96
2019-09-20 08:00:00 15.4 13 Sur 18 Sur 0 -- -- 96
2019-09-20 07:00:00 15.2 10 Sur 13 Sur 0 -- -- 96
2019-09-20 06:00:00 15.2 8 Sudoeste 12 Sudoeste 0 -- -- 96
2019-09-20 05:00:00 15.3 5 Sur 17 Sur 0 -- -- 96
2019-09-20 04:00:00 15.2 11 Sur 15 Sur 0 -- -- 96
2019-09-20 03:00:00 15.2 4 Sur 12 Sur 0 -- -- 96
2019-09-20 02:00:00 15 8 Sur 14 Sudoeste 0 -- -- 96
2019-09-20 01:00:00 15.1 8 Sur 12 Sur 0 -- -- 96
2019-09-20 00:00:00 15 5 Sur 16 Sudoeste 0 -- -- 95
2019-09-19 23:00:00 14.8 13 Sudoeste 18 Sudoeste 0 -- -- 95
2019-09-19 22:00:00 15 11 Sudoeste 19 Sudoeste 0 -- -- 95
2019-09-19 21:00:00 14.9 16 Sudoeste 21 Sudoeste 0 -- -- 95
2019-09-19 20:00:00 15.4 9 Sudoeste 16 Sudoeste 0 -- -- 95
2019-09-19 19:00:00 15.8 10 Sudoeste 15 Sudoeste 0 -- -- 94
2019-09-19 18:00:00 16 12 Sudoeste 18 Sudoeste 0 -- -- 92
2019-09-19 17:00:00 16.6 11 Oeste 14 Oeste 0 -- -- 91
2019-09-19 16:00:00 16.9 11 Sudoeste 14 Oeste 0 -- -- 91
2019-09-19 15:00:00 16.7 12 Sudoeste 15 Sudoeste 0 -- -- 95
2019-09-19 14:00:00 16.3 12 Sudoeste 15 Sudoeste 0 -- -- 96
2019-09-19 13:00:00 15.9 8 Sudoeste 12 Sudoeste 0 -- -- 96
2019-09-19 12:00:00 15.5 8 Sudoeste 11 Sudoeste 0 -- -- 96
2019-09-19 11:00:00 14.8 0 Calma 3 Sudoeste 0 -- -- 96
2019-09-19 10:00:00 14.4 0 Calma -- -- 0 -- -- 96
2019-09-19 09:00:00 13.3 0 Calma 5 Sur 0 -- -- 96
2019-09-19 08:00:00 13.3 4 Sur 7 Sur 0 -- -- 96
2019-09-19 07:00:00 13.3 0 Calma 6 Sur 0.1 -- -- 96
2019-09-19 06:00:00 13.8 4 Sudoeste 10 Sur 0 -- -- 95
2019-09-19 05:00:00 13.4 8 Sur 9 Sur 0 -- -- 95
2019-09-19 04:00:00 15.1 0 Calma -- -- 0 -- -- 95
2019-09-19 03:00:00 14.9 0 Calma -- -- 0 -- -- 95
2019-09-19 02:00:00 15.5 0 Calma 5 Sudoeste 0 -- -- 95
2019-09-19 01:00:00 14.7 0 Calma 7 Sur 0 -- -- 94
2019-09-19 00:00:00 14.6 6 Sur 18 Sur 0 -- -- 93
2019-09-18 23:00:00 16 0 Calma 6 Nordeste 0 -- -- 92
2019-09-18 22:00:00 15.3 0 Calma -- -- 0 -- -- 91
2019-09-18 21:00:00 15.7 0 Calma 0 Calma 0 -- -- 89
2019-09-18 20:00:00 16.1 0 Calma 0 Calma 0 -- -- 89
2019-09-18 19:00:00 16.8 0 Calma -- -- 0 -- -- 86
2019-09-18 18:00:00 17.7 0 Calma 8 Noroeste 0 -- -- 84
2019-09-18 17:00:00 17.6 4 Noroeste 9 Oeste 0 -- -- 82
2019-09-18 16:00:00 18.5 7 Oeste 14 Sudoeste 0 -- -- 80
2019-09-18 15:00:00 19.3 6 Oeste 13 Sudoeste 0 -- -- 87
2019-09-18 14:00:00 17.1 7 Sudoeste 14 Sudoeste 0 -- -- 94
2019-09-18 13:00:00 16.7 11 Sudoeste 14 Sudoeste 0 -- -- 95
2019-09-18 12:00:00 17.1 8 Sudoeste 10 Sudoeste 0 -- -- 95
2019-09-18 11:00:00 16 0 Calma 3 Oeste 0 -- -- 95
2019-09-18 10:00:00 15.5 0 Calma 9 Sudoeste 0 -- -- 95
2019-09-18 09:00:00 15.3 3 Sur 8 Sur 0 -- -- 94
2019-09-18 08:00:00 16.7 3 Sur 7 Sur 0 -- -- 93
2019-09-18 07:00:00 16.8 3 Sudoeste 18 Sudeste 0 -- -- 91
2019-09-18 06:00:00 18.4 9 Sudeste 14 Sudeste 0 -- -- 92
2019-09-18 05:00:00 18.4 2 Sudeste 14 Sudeste 0 -- -- 92
2019-09-18 04:00:00 17.7 5 Este 13 Este 0 -- -- 92
2019-09-18 03:00:00 17.6 11 Sur 14 Sur 0 -- -- 92
2019-09-18 02:00:00 17.4 0 Calma 11 Norte 0 -- -- 92
2019-09-18 01:00:00 17.7 2 Oeste 9 Nordeste 0 -- -- 91
2019-09-18 00:00:00 18.8 0 Calma 11 Norte 0 -- -- 91
2019-09-17 23:00:00 19 8 Sur 14 Nordeste 0 -- -- 93
2019-09-17 22:00:00 16.1 8 Nordeste 15 Norte 0 -- -- 93
2019-09-17 21:00:00 16.4 7 Norte 15 Nordeste 0 -- -- 91
2019-09-15 18:00:00 19 37 Nordeste 51 Nordeste 0 -- -- 88
2019-09-15 17:00:00 18.9 37 Nordeste 53 Nordeste 0 -- -- 89
2019-09-15 16:00:00 18.8 41 Nordeste 56 Nordeste 0 -- -- 87
2019-09-15 15:00:00 18.8 39 Nordeste 51 Nordeste 0 -- -- 83
2019-09-15 14:00:00 19.2 33 Nordeste 42 Nordeste 0 -- -- 82
2019-09-15 13:00:00 20.1 29 Nordeste 40 Nordeste 0 -- -- 80
2019-09-15 12:00:00 18.1 28 Nordeste 36 Nordeste 0 -- -- 91
2019-09-15 11:00:00 16.9 30 Nordeste 34 Nordeste 0 -- -- 95
2019-09-15 10:00:00 16.3 12 Nordeste 22 Nordeste 0 -- -- 95
2019-09-15 09:00:00 16.9 14 Nordeste 23 Este 0 -- -- 96
2019-09-15 08:00:00 16.8 11 Nordeste 19 Nordeste 0 -- -- 96
2019-09-15 07:00:00 15.3 17 Nordeste 24 Nordeste 0 -- -- 96
2019-09-15 06:00:00 15.9 15 Nordeste 30 Nordeste 0 -- -- 96
2019-09-15 05:00:00 15.4 25 Nordeste 33 Nordeste 0 -- -- 95
2019-09-15 04:00:00 16.5 20 Nordeste 32 Nordeste 0 -- -- 95
2019-09-15 03:00:00 16.8 24 Nordeste 44 Nordeste 0 -- -- 95
2019-09-15 02:00:00 17.3 24 Nordeste 49 Nordeste 0 -- -- 95
2019-09-15 01:00:00 17.2 28 Nordeste 41 Norte 0 -- -- 95
2019-09-15 00:00:00 16.8 23 Nordeste 36 Nordeste 0 -- -- 95